Time;durP1;ratioP1;P1;durP2;ratioP2;P2;SDS_P1;SDS_P2;PMS_P1;PMS_P2;Temp;Humidity;BMP_temperature;BMP_pressure;BME280_temperature;BME280_humidity;BME280_pressure;Samples;Min_cycle;Max_cycle;Signal;HPM_P1;HPM_P2
2023/04/09 00:02:19;;;;;;;39.87;31.50;;;7.80;99.90;;;;;;5051329;28;20436;-44
2023/04/09 00:04:46;;;;;;;37.00;29.47;;;7.70;99.90;;;;;;5051130;28;20894;-44
2023/04/09 00:07:14;;;;;;;38.70;31.07;;;7.50;99.90;;;;;;5051062;28;20436;-44
2023/04/09 00:09:41;;;;;;;44.10;31.23;;;7.40;99.90;;;;;;5050973;28;20441;-44
2023/04/09 00:12:07;;;;;;;39.10;31.33;;;7.10;99.90;;;;;;5051166;28;20441;-45
2023/04/09 00:14:34;;;;;;;40.73;32.63;;;7.50;99.90;;;;;;5051279;28;20437;-44
2023/04/09 00:17:01;;;;;;;39.53;31.80;;;7.60;99.90;;;;;;5050858;28;20437;-44
2023/04/09 00:19:27;;;;;;;41.90;31.90;;;7.30;99.90;;;;;;5032877;28;20422;-44
2023/04/09 00:21:54;;;;;;;40.17;31.13;;;7.30;99.90;;;;;;5054098;28;20444;-44
2023/04/09 00:24:23;;;;;;;40.80;32.20;;;7.40;99.90;;;;;;5054321;28;20811;-44
2023/04/09 00:26:49;;;;;;;40.23;32.33;;;7.20;99.90;;;;;;5054612;28;20441;-43
2023/04/09 00:29:16;;;;;;;42.57;33.80;;;7.50;99.90;;;;;;5054292;28;20437;-44
2023/04/09 00:31:42;;;;;;;42.13;32.63;;;7.30;99.90;;;;;;5036501;28;20936;-44
2023/04/09 00:34:09;;;;;;;42.27;33.00;;;7.20;99.90;;;;;;5054658;28;20479;-45
2023/04/09 00:36:37;;;;;;;42.93;34.87;;;6.60;99.90;;;;;;5054340;28;20536;-45
2023/04/09 00:39:03;;;;;;;39.03;30.60;;;7.10;99.90;;;;;;5053923;28;20451;-45
2023/04/09 00:41:31;;;;;;;44.13;34.17;;;7.20;99.90;;;;;;5054352;28;20434;-45
2023/04/09 00:43:58;;;;;;;39.77;31.83;;;7.30;99.90;;;;;;5054394;28;20439;-43
2023/04/09 00:46:24;;;;;;;44.50;34.60;;;7.00;99.90;;;;;;5053944;28;20472;-44
2023/04/09 00:48:51;;;;;;;46.30;36.10;;;6.70;99.90;;;;;;5054186;28;20430;-43
2023/04/09 00:51:18;;;;;;;41.93;31.90;;;7.00;99.90;;;;;;5054043;28;20423;-45
2023/04/09 00:53:45;;;;;;;42.23;34.00;;;6.90;99.90;;;;;;5054076;28;20470;-45
2023/04/09 00:56:15;;;;;;;40.70;33.70;;;7.00;99.90;;;;;;5036054;28;20420;-45
2023/04/09 00:58:43;;;;;;;44.30;33.40;;;7.20;99.90;;;;;;5036300;28;20745;-44
2023/04/09 01:01:09;;;;;;;42.07;34.13;;;7.30;99.90;;;;;;5036425;28;20427;-44
2023/04/09 01:03:36;;;;;;;46.13;33.23;;;7.20;99.90;;;;;;5036458;28;20469;-44
2023/04/09 01:06:09;;;;;;;43.47;33.73;;;7.00;99.90;;;;;;5053822;28;20455;-45
2023/04/09 01:08:46;;;;;;;43.03;33.77;;;7.00;99.90;;;;;;5053764;28;20440;-44
2023/04/09 01:11:20;;;;;;;41.43;33.17;;;6.90;99.90;;;;;;5039256;28;20954;-47
2023/04/09 01:14:03;;;;;;;44.90;34.00;;;7.00;99.90;;;;;;5040075;28;20444;-44
2023/04/09 01:16:34;;;;;;;43.27;32.33;;;7.20;99.90;;;;;;5039309;28;20901;-44
2023/04/09 01:19:09;;;;;;;43.13;33.93;;;7.00;99.90;;;;;;5035609;28;20428;-45
2023/04/09 01:21:38;;;;;;;44.20;34.67;;;7.50;99.90;;;;;;5053799;28;20438;-43
2023/04/09 01:24:19;;;;;;;43.57;32.83;;;7.00;99.90;;;;;;5053350;28;20460;-44
2023/04/09 01:27:06;;;;;;;37.60;31.07;;;6.60;99.90;;;;;;5035512;28;20419;-44
2023/04/09 01:29:53;;;;;;;43.57;32.57;;;6.90;99.90;;;;;;5053445;28;20875;-43
2023/04/09 01:32:21;;;;;;;41.10;32.17;;;6.90;99.90;;;;;;5052906;28;20453;-44
2023/04/09 01:34:49;;;;;;;41.07;33.37;;;7.00;99.90;;;;;;5053453;28;20432;-44
2023/04/09 01:37:18;;;;;;;44.07;33.83;;;6.80;99.90;;;;;;5053867;28;20411;-43
2023/04/09 01:39:45;;;;;;;43.07;33.13;;;6.80;99.90;;;;;;5055648;28;20408;-44
2023/04/09 01:42:15;;;;;;;46.03;33.20;;;6.70;99.90;;;;;;5057653;28;20448;-45
2023/04/09 01:44:44;;;;;;;38.80;31.87;;;6.70;99.90;;;;;;5038904;28;20426;-43
2023/04/09 01:47:13;;;;;;;48.63;34.10;;;6.70;99.90;;;;;;5035689;28;20434;-42
2023/04/09 01:49:41;;;;;;;46.07;32.93;;;6.20;99.90;;;;;;5035226;28;20431;-44
2023/04/09 01:52:14;;;;;;;44.03;34.03;;;6.80;99.90;;;;;;5035860;28;20459;-56
2023/04/09 01:54:42;;;;;;;43.53;32.63;;;6.70;99.90;;;;;;5012000;28;20480;-46
2023/04/09 01:57:09;;;;;;;41.53;33.13;;;6.70;99.90;;;;;;5028829;28;20536;-46
2023/04/09 01:59:35;;;;;;;38.43;31.60;;;6.60;99.90;;;;;;5028593;28;20465;-45
2023/04/09 02:02:09;;;;;;;41.00;32.57;;;6.70;99.90;;;;;;5028607;28;21004;-45
2023/04/09 02:04:43;;;;;;;45.50;32.90;;;6.50;99.90;;;;;;4994009;28;20965;-45
2023/04/09 02:07:13;;;;;;;44.40;33.73;;;6.10;99.90;;;;;;4993779;28;20910;-45
2023/04/09 02:09:41;;;;;;;44.03;32.70;;;6.70;99.90;;;;;;4992461;28;20454;-47
2023/04/09 02:12:12;;;;;;;42.20;32.73;;;7.10;99.90;;;;;;5009126;28;20792;-45
2023/04/09 02:14:40;;;;;;;44.57;33.03;;;6.50;99.90;;;;;;4994009;28;20524;-45
2023/04/09 02:17:08;;;;;;;42.10;32.20;;;6.20;99.90;;;;;;4995238;28;20993;-46
2023/04/09 02:19:40;;;;;;;41.57;32.40;;;6.60;99.90;;;;;;4994927;28;20424;-45
2023/04/09 02:22:07;;;;;;;42.70;31.20;;;6.50;99.90;;;;;;4995008;28;20439;-46
2023/04/09 02:24:34;;;;;;;42.57;32.00;;;6.10;99.90;;;;;;5010405;28;20484;-46
2023/04/09 02:27:00;;;;;;;41.60;32.63;;;6.40;99.90;;;;;;5010497;28;20492;-45
2023/04/09 02:29:27;;;;;;;41.47;33.73;;;6.40;99.90;;;;;;4995009;28;20441;-45
2023/04/09 02:31:54;;;;;;;45.97;32.00;;;6.30;99.90;;;;;;5011130;28;20438;-45
2023/04/09 02:34:21;;;;;;;44.03;33.43;;;6.10;99.90;;;;;;5010543;28;20792;-45
2023/04/09 02:36:49;;;;;;;45.13;33.07;;;6.20;99.90;;;;;;5010311;28;20959;-46
2023/04/09 02:39:16;;;;;;;46.97;33.20;;;6.20;99.90;;;;;;4993435;28;20928;-45
2023/04/09 02:41:43;;;;;;;43.30;32.27;;;6.10;99.90;;;;;;4995296;28;20445;-45
2023/04/09 02:44:10;;;;;;;47.33;34.97;;;6.20;99.90;;;;;;5008614;28;20520;-47
2023/04/09 02:46:37;;;;;;;47.07;32.60;;;6.30;99.90;;;;;;5010112;28;20869;-46
2023/04/09 02:49:03;;;;;;;46.20;34.03;;;6.10;99.90;;;;;;5009051;28;20442;-45
2023/04/09 02:51:30;;;;;;;47.43;34.30;;;6.30;99.90;;;;;;5009500;28;20505;-47
2023/04/09 02:53:58;;;;;;;43.00;32.93;;;6.10;99.90;;;;;;5007876;28;20624;-46
2023/04/09 02:56:24;;;;;;;41.10;31.63;;;6.20;99.90;;;;;;4992858;28;20548;-46
2023/04/09 02:58:52;;;;;;;41.23;31.87;;;6.10;99.90;;;;;;4992707;28;20417;-44
2023/04/09 03:01:19;;;;;;;43.13;33.63;;;5.50;99.90;;;;;;5008093;28;20426;-45
2023/04/09 03:03:46;;;;;;;41.10;31.37;;;5.50;99.90;;;;;;5008126;28;20471;-45
2023/04/09 03:06:13;;;;;;;45.57;34.53;;;6.00;99.90;;;;;;5007981;28;20532;-45
2023/04/09 03:08:40;;;;;;;42.73;31.30;;;6.00;99.90;;;;;;5007702;28;20816;-45
2023/04/09 03:11:08;;;;;;;42.37;31.73;;;5.90;99.90;;;;;;4992743;28;20443;-45
2023/04/09 03:13:35;;;;;;;45.90;34.50;;;5.40;99.90;;;;;;4992794;28;20432;-45
2023/04/09 03:16:01;;;;;;;43.13;32.00;;;6.00;99.90;;;;;;4992769;28;20442;-45
2023/04/09 03:18:28;;;;;;;41.40;31.87;;;6.00;99.90;;;;;;4992340;28;20405;-45
2023/04/09 03:20:55;;;;;;;45.20;33.50;;;5.90;99.90;;;;;;4992694;28;20961;-45
2023/04/09 03:23:22;;;;;;;39.83;32.13;;;6.10;99.90;;;;;;5007723;28;20819;-45
2023/04/09 03:25:49;;;;;;;42.13;33.17;;;6.10;99.90;;;;;;5007578;28;20513;-45
2023/04/09 03:28:19;;;;;;;45.70;33.97;;;6.10;99.90;;;;;;5007456;28;20443;-45
2023/04/09 03:30:50;;;;;;;43.80;34.17;;;5.50;99.90;;;;;;5007784;28;20425;-44
2023/04/09 03:33:18;;;;;;;45.87;34.63;;;5.90;99.90;;;;;;4992684;28;20846;-45
2023/04/09 03:35:54;;;;;;;48.37;36.70;;;6.00;99.90;;;;;;5007777;28;20548;-46
2023/04/09 03:38:29;;;;;;;47.10;35.23;;;5.70;99.90;;;;;;5007500;28;21031;-46
2023/04/09 03:40:57;;;;;;;45.40;34.53;;;5.80;99.90;;;;;;5007993;28;20479;-46
2023/04/09 03:43:26;;;;;;;49.73;35.50;;;5.90;99.90;;;;;;4991864;28;20469;-47
2023/04/09 03:45:53;;;;;;;50.60;35.20;;;5.70;99.90;;;;;;5008252;28;20509;-44
2023/04/09 03:48:23;;;;;;;48.43;31.53;;;5.80;99.90;;;;;;5007801;28;20456;-43
2023/04/09 03:50:52;;;;;;;39.97;29.90;;;5.60;99.90;;;;;;5007866;28;20461;-46
2023/04/09 03:53:25;;;;;;;47.90;32.40;;;5.40;99.90;;;;;;4992907;28;20486;-45
2023/04/09 03:55:55;;;;;;;42.50;31.73;;;5.40;99.90;;;;;;5009498;28;20460;-45
2023/04/09 03:58:27;;;;;;;52.20;35.23;;;5.60;99.90;;;;;;5011070;28;20999;-46
2023/04/09 04:00:54;;;;;;;74.90;36.03;;;5.90;99.90;;;;;;4994951;28;20455;-46
2023/04/09 04:03:34;;;;;;;53.13;36.00;;;5.70;99.90;;;;;;5011670;28;20835;-44
2023/04/09 04:06:11;;;;;;;65.80;37.80;;;6.00;99.90;;;;;;5011533;28;20836;-45
2023/04/09 04:08:46;;;;;;;62.40;38.17;;;5.60;99.90;;;;;;5010735;28;20441;-46
2023/04/09 04:11:12;;;;;;;66.83;37.80;;;5.80;99.90;;;;;;5011121;28;20464;-46
2023/04/09 04:13:41;;;;;;;71.13;40.77;;;6.10;99.90;;;;;;5010789;28;20498;-45
2023/04/09 04:16:10;;;;;;;75.23;42.70;;;5.30;99.90;;;;;;5011017;28;20801;-46
2023/04/09 04:18:39;;;;;;;126.00;44.00;;;5.70;99.90;;;;;;5010556;28;20450;-45
2023/04/09 04:21:05;;;;;;;116.27;42.83;;;6.20;99.90;;;;;;5010900;28;20837;-46
2023/04/09 04:23:34;;;;;;;72.80;42.57;;;6.10;99.90;;;;;;5011056;28;20478;-45
2023/04/09 04:26:17;;;;;;;151.43;46.33;;;6.00;99.90;;;;;;5010929;28;20957;-45
2023/04/09 04:28:45;;;;;;;91.50;42.23;;;5.40;99.90;;;;;;5010466;28;20461;-45
2023/04/09 04:31:18;;;;;;;124.43;43.97;;;6.30;99.90;;;;;;5010759;28;20457;-46
2023/04/09 04:33:45;;;;;;;112.57;43.70;;;6.10;99.90;;;;;;5010551;28;20525;-45
2023/04/09 04:36:14;;;;;;;93.83;37.50;;;6.00;99.90;;;;;;5010518;28;20457;-47
2023/04/09 04:38:46;;;;;;;110.07;38.67;;;6.20;99.90;;;;;;4993852;28;20512;-46
2023/04/09 04:41:18;;;;;;;75.17;41.17;;;6.10;99.90;;;;;;5010578;28;20524;-46
2023/04/09 04:43:53;;;;;;;83.10;36.93;;;5.80;99.90;;;;;;5010582;28;20843;-45
2023/04/09 04:46:22;;;;;;;76.30;38.70;;;6.20;99.90;;;;;;4995864;28;21061;-47
2023/04/09 04:48:49;;;;;;;81.43;33.07;;;6.10;99.90;;;;;;5010001;28;20970;-46
2023/04/09 04:51:16;;;;;;;81.03;37.53;;;6.10;99.90;;;;;;5010116;28;20437;-46
2023/04/09 04:53:53;;;;;;;62.00;34.80;;;6.00;99.90;;;;;;5010191;28;20479;-46
2023/04/09 04:56:20;;;;;;;97.97;34.47;;;5.50;99.90;;;;;;5010149;28;20818;-46
2023/04/09 04:59:02;;;;;;;92.40;40.33;;;6.10;99.90;;;;;;5009848;28;20746;-45
2023/04/09 05:01:34;;;;;;;68.23;35.57;;;6.20;99.90;;;;;;5009944;28;20477;-46
2023/04/09 05:04:05;;;;;;;75.90;35.23;;;6.20;99.90;;;;;;5010359;28;20476;-47
2023/04/09 05:06:33;;;;;;;58.33;33.97;;;6.30;99.90;;;;;;4993302;28;20542;-46
2023/04/09 05:09:04;;;;;;;59.13;34.47;;;6.40;99.90;;;;;;5010001;28;20417;-46
2023/04/09 05:11:40;;;;;;;58.03;33.83;;;6.30;99.90;;;;;;4995088;28;20406;-45
2023/04/09 05:14:14;;;;;;;73.40;38.47;;;5.90;99.90;;;;;;5009815;28;20445;-46
2023/04/09 05:16:41;;;;;;;62.10;35.57;;;6.70;99.90;;;;;;5009781;28;20459;-46
2023/04/09 05:19:08;;;;;;;73.80;34.43;;;6.60;99.90;;;;;;5009529;28;20454;-47
2023/04/09 05:21:34;;;;;;;66.03;35.90;;;6.60;99.90;;;;;;4994777;28;20414;-45
2023/04/09 05:24:02;;;;;;;59.17;35.00;;;6.70;99.90;;;;;;4994497;28;20457;-46
2023/04/09 05:26:31;;;;;;;60.30;35.83;;;6.70;99.90;;;;;;5009356;28;20453;-46
2023/04/09 05:28:58;;;;;;;58.13;35.40;;;6.30;99.90;;;;;;5010181;28;20447;-46
2023/04/09 05:31:27;;;;;;;51.73;33.10;;;7.20;99.90;;;;;;5009664;28;20460;-46
2023/04/09 05:34:05;;;;;;;56.97;33.33;;;6.80;99.90;;;;;;5009985;28;20471;-45
2023/04/09 05:36:40;;;;;;;67.40;34.10;;;6.90;99.90;;;;;;5010495;28;20495;-45
2023/04/09 05:39:06;;;;;;;56.93;33.77;;;6.90;99.90;;;;;;5010363;28;20451;-44
2023/04/09 05:41:36;;;;;;;53.93;33.70;;;7.10;99.90;;;;;;5012325;28;20828;-44
2023/04/09 05:44:28;;;;;;;54.90;31.90;;;7.20;99.90;;;;;;5011517;28;20545;-46
2023/04/09 05:47:18;;;;;;;50.80;33.63;;;7.30;99.90;;;;;;5010072;28;20688;-45
2023/04/09 05:49:56;;;;;;;49.20;31.13;;;7.30;99.90;;;;;;5009517;28;20475;-46
2023/04/09 05:52:23;;;;;;;44.50;30.53;;;7.50;99.90;;;;;;5009379;28;20435;-46
2023/04/09 05:54:51;;;;;;;48.10;32.53;;;7.20;99.90;;;;;;5009025;28;20476;-46
2023/04/09 05:57:23;;;;;;;42.60;29.80;;;7.30;99.90;;;;;;5009013;28;20423;-46
2023/04/09 05:59:56;;;;;;;44.80;30.40;;;7.50;99.90;;;;;;4992493;28;20456;-46
2023/04/09 06:02:25;;;;;;;42.20;32.43;;;7.50;99.90;;;;;;4992397;28;20513;-46
2023/04/09 06:04:53;;;;;;;41.83;29.87;;;7.10;99.90;;;;;;5008983;28;20433;-46
2023/04/09 06:07:20;;;;;;;44.57;29.83;;;6.80;99.90;;;;;;5008657;28;20516;-45
2023/04/09 06:09:47;;;;;;;44.10;31.27;;;7.10;99.90;;;;;;4993421;28;20410;-46
2023/04/09 06:12:14;;;;;;;45.40;32.90;;;7.40;99.90;;;;;;4993495;28;20410;-46
2023/04/09 06:14:41;;;;;;;48.53;31.37;;;7.40;99.90;;;;;;5008533;28;20426;-45
2023/04/09 06:17:08;;;;;;;42.90;29.80;;;7.80;99.90;;;;;;5008586;28;20420;-46
2023/04/09 06:19:36;;;;;;;43.83;31.17;;;7.70;99.90;;;;;;4993001;28;20447;-46
2023/04/09 06:22:02;;;;;;;44.80;29.93;;;7.60;99.90;;;;;;4993551;28;20451;-45
2023/04/09 06:24:31;;;;;;;45.90;31.33;;;7.40;99.90;;;;;;4993495;28;20436;-47
2023/04/09 06:26:57;;;;;;;44.00;29.53;;;7.80;99.90;;;;;;4993506;28;20983;-46
2023/04/09 06:29:24;;;;;;;42.73;29.83;;;7.70;99.90;;;;;;4993124;28;20919;-46
2023/04/09 06:31:51;;;;;;;41.23;30.27;;;7.70;99.90;;;;;;4993345;28;20415;-46
2023/04/09 06:34:18;;;;;;;46.33;32.37;;;7.60;99.90;;;;;;4993225;28;20452;-45
2023/04/09 06:36:46;;;;;;;41.53;31.60;;;7.20;99.90;;;;;;4993302;28;20432;-45
2023/04/09 06:39:12;;;;;;;37.67;29.60;;;7.80;99.90;;;;;;4992710;28;20527;-46
2023/04/09 06:41:39;;;;;;;42.60;30.37;;;7.30;99.90;;;;;;4993226;28;20423;-46
2023/04/09 06:44:20;;;;;;;40.43;31.27;;;7.90;99.90;;;;;;5008416;28;20970;-45
2023/04/09 06:46:47;;;;;;;42.63;32.13;;;7.70;99.90;;;;;;4994628;28;20458;-45
2023/04/09 06:49:14;;;;;;;40.90;30.37;;;7.80;99.90;;;;;;4994028;28;20408;-46
2023/04/09 06:51:40;;;;;;;40.40;30.80;;;7.90;99.90;;;;;;4994871;28;20568;-45
2023/04/09 06:54:08;;;;;;;37.57;27.93;;;7.80;99.90;;;;;;4993050;28;21064;-44
2023/04/09 06:56:35;;;;;;;40.83;31.73;;;8.00;99.90;;;;;;4993285;28;20440;-46
2023/04/09 06:59:02;;;;;;;45.60;32.10;;;8.00;99.90;;;;;;4992797;28;20443;-46
2023/04/09 07:01:28;;;;;;;40.60;29.97;;;8.20;99.90;;;;;;4993048;28;20415;-46
2023/04/09 07:03:55;;;;;;;39.70;30.27;;;8.20;99.90;;;;;;4993138;28;20462;-46
2023/04/09 07:06:22;;;;;;;45.30;30.37;;;8.20;99.90;;;;;;4992969;28;20957;-46
2023/04/09 07:08:48;;;;;;;38.60;30.80;;;8.10;99.90;;;;;;4992605;28;20407;-46
2023/04/09 07:11:16;;;;;;;44.20;32.73;;;8.00;99.90;;;;;;4992895;28;20903;-45
2023/04/09 07:13:43;;;;;;;37.70;28.57;;;8.10;99.90;;;;;;4992765;28;20455;-46
2023/04/09 07:16:10;;;;;;;38.77;30.00;;;8.30;99.90;;;;;;4992791;28;20960;-44
2023/04/09 07:18:36;;;;;;;41.37;30.40;;;7.80;99.90;;;;;;4992406;28;20853;-46
2023/04/09 07:21:03;;;;;;;41.83;30.03;;;8.40;99.90;;;;;;4992775;28;20432;-45
2023/04/09 07:23:30;;;;;;;42.53;30.00;;;8.40;99.90;;;;;;4992654;28;20454;-45
2023/04/09 07:25:56;;;;;;;38.60;28.67;;;8.30;99.90;;;;;;4992732;28;20461;-46
2023/04/09 07:28:24;;;;;;;37.47;28.90;;;8.50;99.90;;;;;;4992472;28;20465;-46
2023/04/09 07:30:52;;;;;;;38.50;27.30;;;8.30;99.90;;;;;;4994462;28;20440;-45
2023/04/09 07:33:18;;;;;;;41.80;29.93;;;8.50;99.90;;;;;;4996844;28;20469;-45
2023/04/09 07:35:45;;;;;;;43.43;30.70;;;8.50;99.90;;;;;;4997571;28;20921;-46
2023/04/09 07:38:12;;;;;;;40.73;29.77;;;8.80;99.90;;;;;;4996230;28;20441;-45
2023/04/09 07:40:39;;;;;;;41.57;29.87;;;8.60;99.90;;;;;;4996503;28;20966;-45
2023/04/09 07:43:06;;;;;;;41.40;30.00;;;8.70;99.90;;;;;;4996420;28;20436;-46
2023/04/09 07:45:34;;;;;;;41.83;28.90;;;8.90;99.90;;;;;;4996440;28;20425;-46
2023/04/09 07:48:00;;;;;;;41.03;28.00;;;8.50;99.90;;;;;;4996231;28;20479;-45
2023/04/09 07:50:27;;;;;;;41.20;31.13;;;8.80;99.90;;;;;;4996250;28;20444;-46
2023/04/09 07:52:54;;;;;;;36.73;27.80;;;9.20;99.90;;;;;;5025331;22;20433;-43
2023/04/09 07:55:21;;;;;;;37.57;28.37;;;8.90;99.90;;;;;;5037046;28;20505;-44
2023/04/09 07:57:48;;;;;;;36.50;27.40;;;8.90;99.90;;;;;;5037096;28;20993;-44
2023/04/09 08:00:15;;;;;;;38.40;28.43;;;8.60;99.90;;;;;;5035604;28;20489;-44
2023/04/09 08:02:44;;;;;;;47.53;30.17;;;8.90;99.90;;;;;;5037156;28;20801;-44
2023/04/09 08:05:11;;;;;;;40.33;30.80;;;9.40;99.90;;;;;;5038146;28;20414;-47
2023/04/09 08:07:38;;;;;;;43.50;31.87;;;7.90;99.90;;;;;;5037138;28;20479;-43
2023/04/09 08:10:06;;;;;;;40.27;30.90;;;9.20;99.90;;;;;;5036443;28;20810;-42
2023/04/09 08:12:33;;;;;;;35.60;27.27;;;8.90;99.90;;;;;;5036578;28;20412;-44
2023/04/09 08:15:02;;;;;;;39.43;30.57;;;9.00;99.90;;;;;;5036483;28;20945;-44
2023/04/09 08:17:29;;;;;;;42.77;31.50;;;8.90;99.90;;;;;;5036865;28;20434;-46
2023/04/09 08:19:57;;;;;;;37.20;29.37;;;9.00;99.90;;;;;;5035626;28;20435;-44
2023/04/09 08:22:24;;;;;;;39.73;31.47;;;8.90;99.90;;;;;;5035565;28;20928;-44
2023/04/09 08:24:51;;;;;;;39.40;30.30;;;8.70;99.90;;;;;;5035190;28;20534;-44
2023/04/09 08:27:18;;;;;;;40.80;31.23;;;8.80;99.90;;;;;;5036009;28;20442;-42
2023/04/09 08:29:45;;;;;;;39.87;31.57;;;9.00;99.90;;;;;;5034602;28;20431;-44
2023/04/09 08:32:11;;;;;;;40.43;31.23;;;8.90;99.90;;;;;;5035042;28;20435;-44
2023/04/09 08:34:38;;;;;;;44.57;32.53;;;9.00;99.90;;;;;;5034908;28;20525;-45
2023/04/09 08:37:06;;;;;;;37.30;30.53;;;9.00;99.90;;;;;;5034814;28;20922;-44
2023/04/09 08:39:35;;;;;;;38.17;30.63;;;9.20;99.90;;;;;;5033087;28;20422;-45
2023/04/09 08:42:02;;;;;;;43.60;30.70;;;9.70;99.90;;;;;;5034494;28;20443;-45
2023/04/09 08:44:29;;;;;;;42.60;31.03;;;9.30;99.90;;;;;;5032919;28;20538;-43
2023/04/09 08:46:56;;;;;;;42.67;31.70;;;9.70;99.90;;;;;;5034586;28;20438;-44
2023/04/09 08:49:22;;;;;;;39.27;32.10;;;9.20;99.90;;;;;;5034376;28;20912;-43
2023/04/09 08:51:49;;;;;;;37.77;30.00;;;9.60;99.90;;;;;;5035087;28;20417;-43
2023/04/09 08:54:18;;;;;;;39.97;29.80;;;9.80;99.90;;;;;;5033090;28;20472;-42
2023/04/09 08:56:45;;;;;;;38.40;30.23;;;9.90;99.90;;;;;;5034248;28;20418;-43
2023/04/09 08:59:15;;;;;;;36.00;29.93;;;9.90;99.90;;;;;;5033677;28;20424;-43
2023/04/09 09:01:42;;;;;;;35.17;28.40;;;9.80;99.90;;;;;;5034501;28;20877;-43
2023/04/09 09:04:09;;;;;;;41.67;32.10;;;9.80;99.90;;;;;;5034139;28;20983;-42
2023/04/09 09:06:38;;;;;;;39.73;30.60;;;10.40;99.90;;;;;;5035008;28;20501;-43
2023/04/09 09:09:07;;;;;;;37.03;29.77;;;9.70;99.90;;;;;;5034166;28;20457;-44
2023/04/09 09:11:37;;;;;;;37.93;31.37;;;9.80;99.90;;;;;;5034281;28;20410;-43
2023/04/09 09:14:05;;;;;;;37.60;29.40;;;10.20;99.90;;;;;;5034437;28;20791;-44
2023/04/09 09:16:34;;;;;;;37.20;28.50;;;10.20;99.90;;;;;;5034370;28;20850;-43
2023/04/09 09:19:02;;;;;;;38.53;30.80;;;9.50;99.90;;;;;;5034391;28;20472;-46
2023/04/09 09:21:29;;;;;;;41.53;32.70;;;10.10;99.90;;;;;;5034215;28;20439;-47
2023/04/09 09:23:57;;;;;;;36.00;29.60;;;10.60;99.90;;;;;;5034220;28;20934;-46
2023/04/09 09:26:26;;;;;;;38.40;29.00;;;10.30;99.90;;;;;;5034409;28;20431;-46
2023/04/09 09:28:54;;;;;;;36.03;30.17;;;10.40;99.90;;;;;;5033806;28;20479;-46
2023/04/09 09:31:22;;;;;;;35.10;28.50;;;10.40;99.90;;;;;;5033861;28;20414;-46
2023/04/09 09:33:50;;;;;;;34.37;28.00;;;10.50;99.90;;;;;;5033897;28;20434;-47
2023/04/09 09:36:31;;;;;;;36.80;29.70;;;10.70;99.90;;;;;;5035933;28;20851;-46
2023/04/09 09:39:02;;;;;;;32.50;26.70;;;10.70;99.90;;;;;;5033659;28;20431;-46
2023/04/09 09:41:29;;;;;;;31.40;27.03;;;11.30;99.90;;;;;;5033926;28;20760;-46
2023/04/09 09:43:57;;;;;;;35.27;28.93;;;10.80;99.90;;;;;;5033613;28;21050;-46
2023/04/09 09:46:26;;;;;;;38.30;29.57;;;10.70;99.90;;;;;;5033636;28;20506;-46
2023/04/09 09:48:53;;;;;;;36.73;28.13;;;10.80;99.90;;;;;;5033057;28;20478;-46
2023/04/09 09:51:22;;;;;;;34.13;28.93;;;10.40;99.90;;;;;;5033683;28;20409;-46
2023/04/09 09:53:53;;;;;;;35.20;29.43;;;10.30;99.90;;;;;;5032687;28;20493;-46
2023/04/09 09:56:23;;;;;;;34.50;28.20;;;10.90;99.90;;;;;;5035037;28;20458;-46
2023/04/09 09:58:56;;;;;;;35.73;30.10;;;10.90;99.90;;;;;;5035351;28;20440;-46
2023/04/09 10:01:26;;;;;;;32.43;25.67;;;11.30;99.90;;;;;;5035457;28;20489;-46
2023/04/09 10:03:55;;;;;;;33.47;26.60;;;11.10;99.90;;;;;;5035499;28;20448;-46
2023/04/09 10:06:23;;;;;;;32.20;28.30;;;11.10;99.90;;;;;;5034927;28;20805;-46
2023/04/09 10:08:51;;;;;;;34.10;28.30;;;11.50;99.90;;;;;;5034741;28;20458;-45
2023/04/09 10:11:18;;;;;;;29.20;25.73;;;11.10;99.90;;;;;;5035300;28;20922;-45
2023/04/09 10:13:50;;;;;;;31.43;26.60;;;11.50;99.90;;;;;;5034431;28;20456;-45
2023/04/09 10:16:17;;;;;;;31.50;26.23;;;11.70;99.90;;;;;;5034369;28;20871;-46
2023/04/09 10:18:46;;;;;;;33.93;26.80;;;11.30;99.90;;;;;;5034325;28;20447;-45
2023/04/09 10:21:19;;;;;;;28.90;25.40;;;11.50;99.90;;;;;;5035161;28;20417;-46
2023/04/09 10:23:49;;;;;;;29.97;25.20;;;11.20;99.90;;;;;;5033509;28;20457;-46
2023/04/09 10:26:18;;;;;;;28.17;24.43;;;11.50;99.90;;;;;;5034734;28;20412;-45
2023/04/09 10:28:45;;;;;;;28.77;23.70;;;11.50;99.90;;;;;;5033617;28;20457;-45
2023/04/09 10:31:12;;;;;;;30.70;24.83;;;11.90;99.90;;;;;;5032697;28;20427;-44
2023/04/09 10:33:39;;;;;;;28.67;23.57;;;11.40;99.90;;;;;;5034243;28;20941;-46
2023/04/09 10:36:11;;;;;;;29.90;23.77;;;11.80;99.90;;;;;;5034359;28;20773;-45
2023/04/09 10:38:40;;;;;;;29.70;24.60;;;11.90;99.90;;;;;;5033405;28;20490;-45
2023/04/09 10:41:15;;;;;;;30.10;22.80;;;12.30;99.90;;;;;;5033489;28;20425;-46
2023/04/09 10:43:42;;;;;;;26.00;23.13;;;12.20;99.90;;;;;;5034845;28;20453;-45
2023/04/09 10:46:27;;;;;;;24.90;22.10;;;12.10;99.90;;;;;;5034423;28;20895;-45
2023/04/09 10:49:10;;;;;;;28.40;25.40;;;12.20;99.90;;;;;;5032537;28;20476;-45
2023/04/09 10:51:39;;;;;;;35.17;25.60;;;12.30;99.90;;;;;;5032956;28;20416;-46
2023/04/09 10:54:06;;;;;;;34.40;27.90;;;12.20;99.90;;;;;;5032845;28;20458;-46
2023/04/09 10:56:33;;;;;;;29.67;26.37;;;12.40;99.90;;;;;;5034943;28;20435;-46
2023/04/09 10:59:00;;;;;;;29.23;23.67;;;11.80;99.90;;;;;;5033768;28;20498;-46
2023/04/09 11:01:27;;;;;;;29.50;24.73;;;12.40;99.90;;;;;;5032317;28;20418;-46
2023/04/09 11:04:08;;;;;;;29.63;24.37;;;12.30;99.90;;;;;;5033016;28;20867;-46
2023/04/09 11:06:36;;;;;;;28.23;23.30;;;12.20;99.90;;;;;;5034416;28;20917;-45
2023/04/09 11:09:04;;;;;;;25.97;22.10;;;12.30;99.90;;;;;;5032932;28;20621;-45
2023/04/09 11:11:32;;;;;;;28.87;23.43;;;12.30;99.90;;;;;;5034275;28;20973;-45
2023/04/09 11:14:00;;;;;;;26.20;21.40;;;12.30;99.90;;;;;;5032476;28;20454;-45
2023/04/09 11:16:29;;;;;;;24.80;21.27;;;12.30;99.90;;;;;;5031737;28;21083;-45
2023/04/09 11:18:56;;;;;;;27.20;22.60;;;12.60;99.90;;;;;;5032748;28;20552;-46
2023/04/09 11:21:27;;;;;;;25.30;22.00;;;12.40;99.90;;;;;;5032771;28;20441;-45
2023/04/09 11:23:54;;;;;;;28.97;22.83;;;12.30;99.90;;;;;;5033175;28;20433;-45
2023/04/09 11:26:28;;;;;;;28.63;24.13;;;12.30;99.90;;;;;;5032979;28;20518;-45
2023/04/09 11:28:56;;;;;;;25.70;22.10;;;12.10;99.90;;;;;;5032156;28;20568;-46
2023/04/09 11:31:27;;;;;;;26.30;22.37;;;12.00;99.90;;;;;;5032613;28;20471;-46
2023/04/09 11:33:54;;;;;;;28.50;21.70;;;12.30;99.90;;;;;;5032387;28;20469;-46
2023/04/09 11:36:21;;;;;;;34.13;23.27;;;12.00;99.90;;;;;;5032039;28;20413;-45
2023/04/09 11:38:48;;;;;;;29.87;23.43;;;12.00;99.90;;;;;;5032530;28;20401;-46
2023/04/09 11:41:15;;;;;;;27.23;23.07;;;11.90;99.90;;;;;;5032885;28;20444;-46
2023/04/09 11:43:43;;;;;;;27.13;21.83;;;11.60;99.90;;;;;;5032997;28;20536;-46
2023/04/09 11:46:10;;;;;;;29.70;23.40;;;11.60;99.90;;;;;;5032955;28;20914;-46
2023/04/09 11:48:37;;;;;;;29.50;23.47;;;11.50;99.90;;;;;;5033850;28;20451;-45
2023/04/09 11:51:04;;;;;;;28.10;23.23;;;11.30;99.90;;;;;;5032730;28;20403;-45
2023/04/09 11:53:31;;;;;;;27.03;20.90;;;11.30;99.90;;;;;;5032105;28;20475;-46
2023/04/09 11:55:57;;;;;;;28.60;22.40;;;11.60;99.90;;;;;;5032298;28;20449;-45
2023/04/09 11:58:26;;;;;;;27.37;21.67;;;11.40;99.90;;;;;;5031941;28;20437;-45
2023/04/09 12:00:55;;;;;;;25.40;22.70;;;11.60;99.90;;;;;;5032339;28;20774;-44
2023/04/09 12:03:29;;;;;;;28.53;22.20;;;11.20;99.90;;;;;;5032071;28;20465;-46
2023/04/09 12:05:56;;;;;;;26.30;19.77;;;11.70;99.90;;;;;;5033444;28;20440;-45
2023/04/09 12:08:23;;;;;;;26.30;22.57;;;11.60;99.90;;;;;;5032693;28;20452;-45
2023/04/09 12:10:51;;;;;;;28.70;22.53;;;11.20;99.90;;;;;;5032346;28;20436;-45
2023/04/09 12:13:18;;;;;;;32.13;22.70;;;11.50;99.90;;;;;;5032453;28;20824;-46
2023/04/09 12:15:48;;;;;;;30.10;23.00;;;11.10;99.90;;;;;;5032976;28;20439;-45
2023/04/09 12:18:16;;;;;;;32.90;23.27;;;11.30;99.90;;;;;;5037811;28;20922;-45
2023/04/09 12:20:45;;;;;;;27.30;22.77;;;11.50;99.90;;;;;;5036087;28;20520;-46
2023/04/09 12:23:12;;;;;;;28.47;22.77;;;11.90;99.90;;;;;;5035751;28;20454;-46
2023/04/09 12:25:40;;;;;;;30.20;23.50;;;11.00;99.90;;;;;;5035809;28;20410;-45
2023/04/09 12:28:12;;;;;;;33.53;23.30;;;11.40;99.90;;;;;;5036312;28;20406;-46
2023/04/09 12:30:39;;;;;;;29.70;21.70;;;11.30;99.90;;;;;;5034459;28;20461;-44
2023/04/09 12:33:06;;;;;;;30.50;23.20;;;11.80;99.90;;;;;;5035251;28;21024;-44
2023/04/09 12:35:34;;;;;;;28.50;22.77;;;12.00;99.90;;;;;;5034859;28;20440;-46
2023/04/09 12:38:01;;;;;;;29.13;22.87;;;10.90;99.90;;;;;;5035256;28;20428;-46
2023/04/09 12:40:27;;;;;;;31.30;23.00;;;11.60;99.90;;;;;;5034628;28;20468;-47
2023/04/09 12:42:54;;;;;;;30.50;23.50;;;11.40;99.90;;;;;;5034823;28;20442;-46